Time;durP1;ratioP1;P1;durP2;ratioP2;P2;SDS_P1;SDS_P2;PMS_P1;PMS_P2;Temp;Humidity;BMP_temperature;BMP_pressure;BME280_temperature;BME280_humidity;BME280_pressure;Samples;Min_cycle;Max_cycle;Signal;HPM_P1;HPM_P2
2024/04/06 00:00:09;;;;;;;24.27;13.13;;;;;;;9.89;76.18;100873.65;123324;1099;104360;-73
2024/04/06 00:02:45;;;;;;;23.63;12.77;;;;;;;9.94;76.08;100879.09;123437;1099;104354;-74
2024/04/06 00:05:18;;;;;;;25.53;12.80;;;;;;;9.97;75.89;100871.37;123403;1099;104281;-73
2024/04/06 00:07:49;;;;;;;23.07;12.10;;;;;;;10.02;75.99;100868.92;123489;1099;104341;-74
2024/04/06 00:10:19;;;;;;;25.43;12.90;;;;;;;10.02;75.84;100875.08;123374;1098;104341;-73
2024/04/06 00:12:49;;;;;;;24.73;13.00;;;;;;;10.03;75.94;100865.48;123198;1099;104837;-74
2024/04/06 00:15:20;;;;;;;24.90;13.17;;;;;;;9.98;75.84;100869.63;123454;1099;104245;-74
2024/04/06 00:17:50;;;;;;;26.17;13.70;;;;;;;9.97;76.42;100870.45;123415;1099;104643;-74
2024/04/06 00:20:21;;;;;;;25.05;13.15;;;;;;;9.99;76.50;100860.95;123456;1099;104383;-73
2024/04/06 00:22:51;;;;;;;25.33;13.80;;;;;;;10.02;76.32;100871.54;123389;1099;104392;-74
2024/04/06 00:25:21;;;;;;;24.60;13.53;;;;;;;10.02;76.69;100869.84;123398;1099;104464;-74
2024/04/06 00:27:51;;;;;;;27.50;14.30;;;;;;;10.03;76.71;100868.09;123442;1098;104744;-72
2024/04/06 00:30:22;;;;;;;24.60;12.70;;;;;;;10.04;76.58;100869.91;123366;1099;104281;-73
2024/04/06 00:32:52;;;;;;;25.60;12.90;;;;;;;9.97;75.91;100870.45;123452;1099;104341;-74
2024/04/06 00:35:22;;;;;;;26.37;14.50;;;;;;;9.83;76.60;100878.63;123171;1099;104267;-73
2024/04/06 00:37:52;;;;;;;25.37;13.63;;;;;;;9.70;76.00;100882.39;123222;1099;104364;-74
2024/04/06 00:40:23;;;;;;;27.70;14.17;;;;;;;9.67;76.65;100878.74;123457;1099;104245;-74
2024/04/06 00:42:53;;;;;;;28.53;13.30;;;;;;;9.63;76.53;100884.66;123520;1099;104325;-74
2024/04/06 00:45:23;;;;;;;25.70;14.00;;;;;;;9.57;76.08;100885.30;123358;1099;104338;-73
2024/04/06 00:47:54;;;;;;;27.00;13.07;;;;;;;9.60;76.55;100893.30;123542;1099;104347;-73
2024/04/06 00:50:24;;;;;;;24.83;12.20;;;;;;;9.63;76.15;100890.81;123379;1099;104389;-73
2024/04/06 00:52:55;;;;;;;27.37;13.80;;;;;;;9.53;76.49;100893.83;123452;1099;104303;-73
2024/04/06 00:55:25;;;;;;;27.13;14.00;;;;;;;9.44;76.73;100893.40;123535;1099;104357;-73
2024/04/06 00:57:56;;;;;;;28.33;14.30;;;;;;;9.32;76.15;100893.75;123384;1099;104338;-73
2024/04/06 01:00:26;;;;;;;27.80;13.80;;;;;;;9.24;76.14;100897.70;123600;1099;104283;-74
2024/04/06 01:02:56;;;;;;;26.50;13.17;;;;;;;9.21;76.85;100889.70;123554;1098;104389;-74
2024/04/06 01:05:27;;;;;;;27.77;13.93;;;;;;;9.19;76.59;100894.86;123516;1099;104322;-73
2024/04/06 01:07:57;;;;;;;29.33;13.50;;;;;;;9.20;77.06;100893.16;123690;1099;104347;-73
2024/04/06 01:10:29;;;;;;;27.73;13.90;;;;;;;9.23;76.78;100888.95;123415;1099;104216;-73
2024/04/06 01:12:59;;;;;;;27.83;14.17;;;;;;;9.29;77.02;100894.48;123408;1099;104332;-73
2024/04/06 01:15:34;;;;;;;26.80;13.00;;;;;;;9.33;77.12;100898.14;123467;1099;104396;-73
2024/04/06 01:18:05;;;;;;;25.87;13.03;;;;;;;9.30;77.26;100901.53;123272;1099;104277;-73
2024/04/06 01:20:36;;;;;;;25.93;13.87;;;;;;;9.17;76.84;100899.14;123401;1099;104331;-73
2024/04/06 01:23:06;;;;;;;24.37;13.17;;;;;;;9.03;77.09;100905.44;123381;1099;104281;-73
2024/04/06 01:25:36;;;;;;;27.87;13.43;;;;;;;8.94;77.14;100898.03;123454;1098;104354;-74
2024/04/06 01:28:07;;;;;;;26.35;13.35;;;;;;;8.91;77.06;100905.73;123463;1099;104258;-74
2024/04/06 01:30:37;;;;;;;29.20;14.43;;;;;;;8.84;76.72;100901.92;123437;1099;104357;-74
2024/04/06 01:33:08;;;;;;;27.03;14.07;;;;;;;8.74;77.12;100902.28;123370;1099;111805;-74
2024/04/06 01:35:38;;;;;;;25.67;13.10;;;;;;;8.69;77.34;100903.78;123416;1099;104302;-74
2024/04/06 01:38:08;;;;;;;28.27;13.73;;;;;;;8.62;77.17;100907.82;123135;1102;104337;-74
2024/04/06 01:40:38;;;;;;;27.03;13.53;;;;;;;8.55;77.11;100913.55;123138;1099;104432;-74
2024/04/06 01:43:09;;;;;;;27.27;13.60;;;;;;;8.49;77.24;100910.63;123427;1099;104386;-73
2024/04/06 01:45:39;;;;;;;25.45;13.30;;;;;;;8.48;77.38;100906.20;123431;1099;104272;-73
2024/04/06 01:48:09;;;;;;;26.03;12.97;;;;;;;8.44;77.22;100906.05;123470;1099;104245;-73
2024/04/06 01:50:40;;;;;;;24.60;13.03;;;;;;;8.42;77.34;100893.70;123409;1099;104392;-74
2024/04/06 01:53:10;;;;;;;27.37;13.67;;;;;;;8.38;78.00;100891.73;123111;1098;104243;-74
2024/04/06 01:55:40;;;;;;;25.73;12.73;;;;;;;8.35;77.91;100888.97;123136;1099;104354;-74
2024/04/06 01:58:11;;;;;;;24.97;12.53;;;;;;;8.40;78.36;100893.63;123401;1099;104396;-73
2024/04/06 02:00:41;;;;;;;26.27;12.90;;;;;;;8.48;78.20;100882.66;123475;1099;104271;-73
2024/04/06 02:03:12;;;;;;;25.80;12.70;;;;;;;8.50;78.19;100887.16;123485;1099;104243;-74
2024/04/06 02:05:42;;;;;;;26.90;12.80;;;;;;;8.52;77.79;100885.52;123809;1099;104340;-73
2024/04/06 02:08:12;;;;;;;26.63;12.50;;;;;;;8.51;77.78;100891.59;123436;1099;104376;-73
2024/04/06 02:10:43;;;;;;;25.80;12.50;;;;;;;8.52;77.96;100882.90;123456;1099;104272;-73
2024/04/06 02:13:16;;;;;;;24.10;13.20;;;;;;;8.52;78.45;100874.16;123317;1099;104395;-74
2024/04/06 02:15:46;;;;;;;26.30;13.10;;;;;;;8.57;77.93;100881.43;123432;1099;104379;-74
2024/04/06 02:18:16;;;;;;;28.27;13.47;;;;;;;8.64;78.67;100885.24;123419;1099;104377;-74
2024/04/06 02:20:47;;;;;;;27.57;12.70;;;;;;;8.66;78.49;100880.09;123640;1099;104267;-74
2024/04/06 02:23:17;;;;;;;25.57;12.40;;;;;;;8.62;77.97;100877.31;123401;1099;104230;-72
2024/04/06 02:25:47;;;;;;;31.60;13.57;;;;;;;8.59;78.56;100876.28;123296;1099;104361;-72
2024/04/06 02:28:18;;;;;;;26.57;12.70;;;;;;;8.58;78.67;100867.51;123167;1099;104348;-75
2024/04/06 02:30:48;;;;;;;23.63;11.53;;;;;;;8.56;78.70;100865.66;123410;1099;104695;-73
2024/04/06 02:33:18;;;;;;;25.77;12.73;;;;;;;8.48;78.06;100862.66;123135;1099;104380;-73
2024/04/06 02:35:49;;;;;;;27.75;12.45;;;;;;;8.44;78.28;100853.74;123084;1099;104326;-75
2024/04/06 02:38:19;;;;;;;27.63;12.40;;;;;;;8.44;78.83;100853.74;123452;1099;104264;-72
2024/04/06 02:40:49;;;;;;;23.23;11.60;;;;;;;8.44;78.15;100863.31;123434;1099;104227;-74
2024/04/06 02:43:19;;;;;;;25.10;12.20;;;;;;;8.48;78.93;100862.66;123344;1099;105919;-73
2024/04/06 02:45:50;;;;;;;25.80;12.47;;;;;;;8.55;79.00;100859.52;123600;1099;104245;-74
2024/04/06 02:48:20;;;;;;;24.55;12.45;;;;;;;8.58;78.96;100853.55;123303;1099;104293;-73
2024/04/06 02:50:50;;;;;;;24.93;12.53;;;;;;;8.61;78.64;100854.58;123458;1099;104374;-74
2024/04/06 02:53:20;;;;;;;24.83;11.60;;;;;;;8.60;78.69;100847.58;123391;1099;104331;-74
2024/04/06 02:55:51;;;;;;;24.23;11.73;;;;;;;8.50;78.71;100860.13;123472;1099;105117;-72
2024/04/06 02:58:21;;;;;;;24.13;11.53;;;;;;;8.40;78.50;100856.12;123560;1099;104355;-73
2024/04/06 03:00:52;;;;;;;25.63;12.43;;;;;;;8.30;78.38;100862.59;123436;1099;104353;-73
2024/04/06 03:03:22;;;;;;;28.70;12.87;;;;;;;8.21;78.35;100863.04;123173;1099;104376;-73
2024/04/06 03:05:52;;;;;;;23.60;11.70;;;;;;;8.17;78.26;100863.69;123516;1099;104295;-73
2024/04/06 03:08:22;;;;;;;25.00;12.25;;;;;;;8.20;78.72;100870.80;123187;1098;104398;-73
2024/04/06 03:10:53;;;;;;;25.85;11.65;;;;;;;8.14;78.73;100871.37;123147;1099;104338;-73
2024/04/06 03:13:23;;;;;;;22.73;11.87;;;;;;;8.08;78.79;100871.06;123376;1098;104290;-73
2024/04/06 03:15:53;;;;;;;24.80;11.43;;;;;;;8.03;78.16;100867.32;123432;1099;104219;-73
2024/04/06 03:18:24;;;;;;;24.17;11.63;;;;;;;7.99;78.26;100871.47;123321;1099;104166;-73
2024/04/06 03:20:54;;;;;;;22.97;11.10;;;;;;;7.95;78.22;100866.92;123221;1099;104486;-74
2024/04/06 03:23:24;;;;;;;22.60;11.30;;;;;;;7.98;78.80;100863.55;123109;1099;104242;-74
2024/04/06 03:25:54;;;;;;;24.70;11.00;;;;;;;8.06;78.57;100863.14;123543;1099;104243;-74
2024/04/06 03:28:25;;;;;;;22.97;10.83;;;;;;;8.13;79.02;100864.34;123194;1099;104301;-74
2024/04/06 03:30:55;;;;;;;22.90;11.27;;;;;;;8.19;78.61;100871.61;123174;1099;104253;-74
2024/04/06 03:33:25;;;;;;;23.70;11.20;;;;;;;8.24;78.99;100871.04;123147;1099;104409;-74
2024/04/06 03:35:56;;;;;;;25.87;11.57;;;;;;;8.28;78.84;100861.63;123133;1099;104271;-74
2024/04/06 03:38:26;;;;;;;23.50;11.50;;;;;;;8.33;78.68;100861.86;123187;1099;104220;-74
2024/04/06 03:40:56;;;;;;;24.13;10.83;;;;;;;8.37;78.71;100862.09;123429;1099;104238;-74
2024/04/06 03:43:27;;;;;;;25.30;11.70;;;;;;;8.38;78.98;100860.36;123436;1099;104290;-74
2024/04/06 03:45:57;;;;;;;24.33;10.50;;;;;;;8.34;79.17;100864.55;123147;1099;107092;-74
2024/04/06 03:48:30;;;;;;;24.40;11.70;;;;;;;8.31;79.07;100863.51;123170;1099;104351;-74
2024/04/06 03:51:00;;;;;;;24.43;10.67;;;;;;;8.24;78.65;100871.04;123186;1099;104377;-74
2024/04/06 03:53:37;;;;;;;24.37;10.80;;;;;;;8.19;78.97;100869.88;123207;1099;104294;-74
2024/04/06 03:56:07;;;;;;;23.27;11.13;;;;;;;8.18;78.60;100867.19;123535;1099;119028;-73
2024/04/06 03:58:38;;;;;;;25.03;10.53;;;;;;;8.22;78.67;100867.42;123288;1099;104408;-73
2024/04/06 04:01:08;;;;;;;22.00;10.67;;;;;;;8.31;78.74;100858.28;123621;1099;104249;-72
2024/04/06 04:03:39;;;;;;;23.53;11.13;;;;;;;8.36;79.17;100856.78;123580;1099;104272;-73
2024/04/06 04:06:10;;;;;;;22.73;10.70;;;;;;;8.43;78.80;100858.86;124218;1099;104836;-73
2024/04/06 04:08:40;;;;;;;25.30;11.30;;;;;;;8.52;79.54;100855.86;123765;1099;104830;-73
2024/04/06 04:11:10;;;;;;;22.53;10.63;;;;;;;8.59;79.67;100851.00;123525;1098;104329;-73
2024/04/06 04:13:41;;;;;;;22.67;10.77;;;;;;;8.66;79.54;100856.54;123706;1099;104460;-73
2024/04/06 04:16:11;;;;;;;21.90;11.00;;;;;;;8.68;79.68;100854.88;123657;1099;104331;-73
2024/04/06 04:18:42;;;;;;;22.97;10.60;;;;;;;8.75;78.98;100862.22;123627;1098;104207;-74
2024/04/06 04:21:12;;;;;;;22.47;11.03;;;;;;;8.83;79.05;100858.25;123409;1099;104379;-74
2024/04/06 04:23:44;;;;;;;27.15;11.25;;;;;;;8.82;78.93;100861.71;123129;1099;104354;-73
2024/04/06 04:26:14;;;;;;;26.40;12.27;;;;;;;8.76;79.04;100864.03;123360;1098;104278;-74
2024/04/06 04:28:45;;;;;;;24.27;11.40;;;;;;;8.75;79.53;100862.22;123129;1099;104714;-74
2024/04/06 04:31:19;;;;;;;24.97;11.87;;;;;;;8.72;78.99;100862.08;123635;1099;104354;-74
2024/04/06 04:33:49;;;;;;;24.70;12.07;;;;;;;8.68;78.99;100860.12;123440;1099;104370;-74
2024/04/06 04:36:19;;;;;;;25.43;12.40;;;;;;;8.65;79.60;100860.89;123630;1099;104357;-74
2024/04/06 04:38:50;;;;;;;24.70;12.40;;;;;;;8.69;79.78;100861.92;123464;1098;104393;-73
2024/04/06 04:41:20;;;;;;;26.57;12.63;;;;;;;8.75;79.50;100864.84;123176;1099;104284;-74
2024/04/06 04:43:50;;;;;;;25.30;12.50;;;;;;;8.76;79.98;100864.91;123471;1099;104280;-74
2024/04/06 04:46:21;;;;;;;23.03;11.20;;;;;;;8.76;79.98;100869.27;123222;1099;104395;-74
2024/04/06 04:49:00;;;;;;;24.77;11.40;;;;;;;8.79;79.76;100864.18;123164;1099;104494;-73
2024/04/06 04:51:30;;;;;;;25.70;11.43;;;;;;;8.77;80.04;100864.10;123232;1102;104283;-73
2024/04/06 04:54:01;;;;;;;25.70;12.13;;;;;;;8.74;79.72;100863.03;123446;1099;104353;-73
2024/04/06 04:56:31;;;;;;;22.43;11.37;;;;;;;8.81;80.22;100865.14;123308;1099;104351;-73
2024/04/06 04:59:03;;;;;;;24.93;11.97;;;;;;;8.94;80.11;100858.77;123212;1099;104348;-74
2024/04/06 05:01:34;;;;;;;24.60;11.50;;;;;;;9.05;79.77;100860.17;123216;1099;104422;-73
2024/04/06 05:04:04;;;;;;;22.33;11.33;;;;;;;9.09;79.95;100861.23;123509;1099;104226;-73
2024/04/06 05:06:35;;;;;;;22.23;11.63;;;;;;;9.08;79.76;100862.05;123449;1098;104274;-73
2024/04/06 05:09:06;;;;;;;22.67;11.10;;;;;;;9.09;79.89;100856.88;123559;1099;104252;-74
2024/04/06 05:11:37;;;;;;;26.17;12.23;;;;;;;9.12;80.68;100856.14;123277;1102;104484;-73
2024/04/06 05:14:07;;;;;;;25.23;11.77;;;;;;;9.16;80.35;100855.44;123465;1099;104507;-73
2024/04/06 05:16:37;;;;;;;25.03;12.20;;;;;;;9.20;80.94;100856.51;123412;1097;104390;-73
2024/04/06 05:19:08;;;;;;;28.60;12.70;;;;;;;9.24;81.16;100861.95;123484;1099;104687;-74
2024/04/06 05:21:38;;;;;;;28.07;12.30;;;;;;;9.31;80.54;100850.04;123476;1098;104319;-74
2024/04/06 05:24:08;;;;;;;23.93;11.73;;;;;;;9.36;81.09;100856.38;123139;1099;104259;-73
2024/04/06 05:26:40;;;;;;;24.25;11.90;;;;;;;9.42;80.70;100859.28;123364;1099;104334;-73
2024/04/06 05:29:11;;;;;;;24.23;12.30;;;;;;;9.48;80.69;100856.05;123476;1099;104277;-74
2024/04/06 05:31:41;;;;;;;22.90;12.03;;;;;;;9.58;80.64;100857.36;123414;1099;104469;-74
2024/04/06 05:34:11;;;;;;;24.10;11.37;;;;;;;9.68;80.92;100849.10;123473;1099;104337;-73
2024/04/06 05:36:41;;;;;;;23.67;11.77;;;;;;;9.73;81.29;100854.55;123527;1099;104367;-72
2024/04/06 05:39:12;;;;;;;23.77;12.30;;;;;;;9.77;81.39;100853.84;123131;1099;104443;-72
2024/04/06 05:41:42;;;;;;;22.37;11.40;;;;;;;9.82;81.33;100854.96;123085;1099;104239;-73
2024/04/06 05:44:12;;;;;;;26.70;12.77;;;;;;;9.88;81.44;100858.74;123422;1099;104268;-73
2024/04/06 05:46:43;;;;;;;26.43;12.23;;;;;;;9.98;81.80;100859.15;123463;1098;104366;-73
2024/04/06 05:49:13;;;;;;;26.43;12.90;;;;;;;10.05;81.31;100853.32;123426;1099;104777;-73
2024/04/06 05:51:43;;;;;;;25.23;12.67;;;;;;;10.10;81.40;100848.27;123409;1098;104226;-73
2024/04/06 05:54:13;;;;;;;25.10;12.50;;;;;;;10.24;81.61;100847.17;123403;1099;104267;-73
2024/04/06 05:56:44;;;;;;;27.65;12.35;;;;;;;10.34;81.83;100851.09;123210;1099;104226;-73
2024/04/06 05:59:14;;;;;;;25.30;12.13;;;;;;;10.45;82.26;100849.81;123143;1099;104265;-74
2024/04/06 06:01:44;;;;;;;23.20;11.60;;;;;;;10.56;82.18;100852.88;123138;1099;104357;-73
2024/04/06 06:04:14;;;;;;;22.70;11.37;;;;;;;10.68;81.88;100847.25;123109;1099;104335;-73
2024/04/06 06:06:45;;;;;;;25.87;12.00;;;;;;;10.82;82.41;100840.83;123426;1099;104348;-73
2024/04/06 06:09:15;;;;;;;22.53;12.53;;;;;;;10.95;82.09;100840.50;123452;1098;104379;-73
2024/04/06 06:11:46;;;;;;;25.73;11.73;;;;;;;11.11;81.95;100831.48;123124;1099;104341;-73
2024/04/06 06:14:16;;;;;;;26.43;11.83;;;;;;;11.28;81.98;100842.64;123410;1099;104354;-73
2024/04/06 06:16:47;;;;;;;29.40;12.10;;;;;;;11.42;81.49;100837.91;123337;1099;104270;-74
2024/04/06 06:19:17;;;;;;;25.73;12.13;;;;;;;11.57;81.94;100834.05;123404;1099;104406;-73
2024/04/06 06:21:47;;;;;;;24.87;11.87;;;;;;;11.76;82.12;100833.87;123367;1099;104393;-73
2024/04/06 06:24:17;;;;;;;24.87;12.17;;;;;;;11.97;81.81;100825.02;123388;1099;104271;-73
2024/04/06 06:26:48;;;;;;;26.23;11.37;;;;;;;12.13;81.96;100822.06;123473;1099;104356;-73
2024/04/06 06:29:20;;;;;;;22.90;11.57;;;;;;;12.37;82.19;100824.64;123446;1099;104485;-73
2024/04/06 06:31:50;;;;;;;24.65;11.90;;;;;;;12.54;82.01;100817.31;123465;1099;104280;-73
2024/04/06 06:34:21;;;;;;;24.00;11.10;;;;;;;12.76;82.01;100817.97;123280;1099;104341;-73
2024/04/06 06:36:53;;;;;;;24.53;11.73;;;;;;;12.95;81.21;100809.81;123403;1099;104318;-72
2024/04/06 06:39:23;;;;;;;26.63;12.40;;;;;;;13.13;80.80;100816.48;123163;1099;118080;-72
2024/04/06 06:41:54;;;;;;;25.70;12.00;;;;;;;13.34;81.36;100816.28;123409;1099;104379;-72
2024/04/06 06:44:25;;;;;;;26.20;12.23;;;;;;;13.56;81.31;100816.91;123410;1099;104316;-73
2024/04/06 06:46:55;;;;;;;30.77;12.13;;;;;;;13.79;81.11;100822.80;123403;1099;104283;-73
2024/04/06 06:49:25;;;;;;;24.10;12.20;;;;;;;14.07;80.18;100815.64;123437;1099;104238;-72
2024/04/06 06:51:55;;;;;;;25.20;12.13;;;;;;;14.34;80.08;100820.76;123413;1099;104368;-72
2024/04/06 06:54:26;;;;;;;24.60;12.00;;;;;;;14.57;80.23;100823.98;123405;1099;104271;-73
2024/04/06 06:56:57;;;;;;;23.97;11.77;;;;;;;14.83;80.64;100831.66;123450;1099;104341;-73
2024/04/06 06:59:27;;;;;;;23.10;11.87;;;;;;;15.08;81.17;100834.02;123369;1099;104341;-73
2024/04/06 07:01:57;;;;;;;25.00;12.37;;;;;;;15.30;80.99;100834.47;123496;1099;104264;-73
2024/04/06 07:04:28;;;;;;;25.73;13.20;;;;;;;15.47;80.69;100826.89;123474;1099;104329;-73
2024/04/06 07:06:58;;;;;;;24.67;12.73;;;;;;;15.64;79.66;100830.80;123425;1098;104434;-72
2024/04/06 07:09:28;;;;;;;24.77;12.90;;;;;;;15.73;79.23;100824.78;123489;1099;104294;-73
2024/04/06 07:11:59;;;;;;;23.80;12.40;;;;;;;15.89;80.09;100827.77;123491;1099;104307;-73
2024/04/06 07:14:29;;;;;;;26.65;13.40;;;;;;;16.06;79.18;100825.44;123526;1099;104240;-74
2024/04/06 07:16:59;;;;;;;26.97;13.20;;;;;;;16.22;79.10;100829.25;123600;1098;104289;-72
2024/04/06 07:19:29;;;;;;;26.45;13.50;;;;;;;16.41;78.98;100828.72;123410;1099;104405;-74
2024/04/06 07:22:00;;;;;;;26.07;13.07;;;;;;;16.57;78.56;100821.91;123168;1099;104283;-72
2024/04/06 07:24:32;;;;;;;26.10;13.23;;;;;;;16.78;78.38;100821.38;123146;1099;104245;-72
2024/04/06 07:27:02;;;;;;;31.17;13.23;;;;;;;16.98;78.35;100818.15;123202;1099;104255;-72
2024/04/06 07:29:32;;;;;;;23.27;12.67;;;;;;;17.15;77.91;100821.04;123294;1099;104329;-72
2024/04/06 07:32:03;;;;;;;24.17;11.57;;;;;;;17.22;76.93;100807.89;123437;1099;104267;-71
2024/04/06 07:34:33;;;;;;;24.50;11.27;;;;;;;17.34;76.56;100808.91;123433;1099;104335;-72
2024/04/06 07:37:04;;;;;;;24.93;11.40;;;;;;;17.52;76.79;100806.49;123429;1099;104709;-73
2024/04/06 07:39:34;;;;;;;25.47;9.93;;;;;;;17.81;76.73;100797.98;123296;1099;104226;-72
2024/04/06 07:42:05;;;;;;;23.70;11.00;;;;;;;18.08;76.49;100793.86;123415;1099;104271;-72
2024/04/06 07:44:35;;;;;;;24.80;11.90;;;;;;;18.39;76.55;100794.14;123396;1099;104411;-73
2024/04/06 07:47:06;;;;;;;22.90;11.77;;;;;;;18.66;76.00;100786.36;123152;1099;104350;-71
2024/04/06 07:49:36;;;;;;;27.60;11.87;;;;;;;18.90;75.15;100786.55;123387;1099;104341;-71
2024/04/06 07:52:08;;;;;;;29.73;12.20;;;;;;;19.12;75.64;100779.57;123454;1099;104261;-72
2024/04/06 07:54:39;;;;;;;24.10;12.73;;;;;;;19.17;73.82;100773.41;123456;1098;104226;-71
2024/04/06 07:57:09;;;;;;;23.97;12.30;;;;;;;19.27;74.03;100769.00;123390;1099;104348;-72
2024/04/06 07:59:41;;;;;;;11.73;5.13;;;;;;;19.36;73.05;100755.73;123502;1099;104690;-72
2024/04/06 08:02:13;;;;;;;5.50;2.70;;;;;;;19.49;71.00;100761.98;123526;1099;104288;-72
2024/04/06 08:04:45;;;;;;;5.07;2.60;;;;;;;19.65;69.31;100749.63;123068;1099;104328;-72
2024/04/06 08:07:25;;;;;;;4.40;2.37;;;;;;;19.84;69.33;100752.37;123113;1099;104275;-73
2024/04/06 08:09:59;;;;;;;6.10;2.30;;;;;;;19.95;69.79;100742.61;123230;1098;104386;-73
2024/04/06 08:12:36;;;;;;;5.40;2.60;;;;;;;20.14;68.82;100751.49;123391;1099;104338;-73
2024/04/06 08:15:09;;;;;;;6.53;2.70;;;;;;;20.27;67.58;100739.96;123471;1099;104341;-72
2024/04/06 08:17:45;;;;;;;4.62;2.27;;;;;;;20.42;68.12;100739.05;123496;1099;104622;-73
2024/04/06 08:20:16;;;;;;;7.57;2.40;;;;;;;20.57;65.81;100737.23;123531;1099;105687;-71
2024/04/06 08:23:17;;;;;;;4.73;2.13;;;;;;;20.73;65.63;100731.03;123055;1099;104360;-73
2024/04/06 08:27:03;;;;;;;3.90;1.93;;;;;;;21.03;65.47;100720.28;123211;1099;104245;-72
2024/04/06 08:29:51;;;;;;;4.75;2.42;;;;;;;21.27;63.32;100713.93;123398;1099;104344;-72
2024/04/06 08:32:21;;;;;;;2.80;2.00;;;;;;;21.39;62.08;100708.53;123069;1099;104719;-71
2024/04/06 08:34:56;;;;;;;4.93;2.27;;;;;;;21.47;61.19;100716.49;123425;1099;104316;-72
2024/04/06 08:41:36;;;;;;;3.27;2.00;;;;;;;21.65;60.06;100707.53;123168;1099;104351;-71
2024/04/06 08:44:40;;;;;;;3.50;1.90;;;;;;;21.80;60.66;100696.75;123051;1099;104213;-72
2024/04/06 08:47:34;;;;;;;4.10;2.40;;;;;;;21.85;58.28;100686.03;123566;1099;104236;-72
2024/04/06 08:50:08;;;;;;;2.98;2.02;;;;;;;21.93;58.49;100691.31;123493;1099;104268;-72
2024/04/06 08:52:37;;;;;;;;;;;;;;;22.02;53.30;100680.55;123447;1099;104316;-72
2024/04/06 08:55:09;;;;;;;1.90;1.70;;;;;;;22.11;57.28;100676.89;123541;1099;104252;-73
2024/04/06 08:57:40;;;;;;;4.67;2.07;;;;;;;22.20;57.80;100675.01;123598;1099;104309;-72
2024/04/06 09:00:12;;;;;;;2.67;2.00;;;;;;;22.26;57.02;100666.05;123398;1099;104268;-72
2024/04/06 09:02:43;;;;;;;4.20;2.27;;;;;;;22.34;56.74;100669.56;123148;1099;104262;-72
2024/04/06 09:05:14;;;;;;;3.90;2.10;;;;;;;22.44;56.33;100673.05;123079;1099;104409;-72
2024/04/06 09:07:47;;;;;;;4.03;2.00;;;;;;;22.46;55.43;100665.89;123417;1099;104284;-72
2024/04/06 09:10:17;;;;;;;9.23;2.30;;;;;;;22.43;54.08;100658.77;123305;1099;104268;-72
2024/04/06 09:12:48;;;;;;;5.70;1.60;;;;;;;22.45;53.67;100650.73;123125;1099;104348;-71
2024/04/06 09:15:19;;;;;;;5.23;1.80;;;;;;;22.50;53.87;100654.27;123191;1099;104393;-71
2024/04/06 09:17:50;;;;;;;2.57;1.70;;;;;;;22.55;54.04;100644.40;123064;1102;104402;-73
2024/04/06 09:20:20;;;;;;;3.77;1.60;;;;;;;22.57;53.07;100650.60;123453;1099;104750;-72
2024/04/06 09:22:52;;;;;;;8.13;3.03;;;;;;;22.61;52.95;100654.15;123135;1099;110464;-72
2024/04/06 09:25:24;;;;;;;9.47;3.70;;;;;;;22.59;52.12;100642.56;123392;1098;104606;-72
2024/04/06 09:27:54;;;;;;;2.43;2.00;;;;;;;22.58;51.31;100648.84;123493;1099;104402;-72
2024/04/06 09:30:31;;;;;;;3.37;1.73;;;;;;;22.56;51.87;100653.30;123379;1099;104402;-72
2024/04/06 09:33:04;;;;;;;3.20;1.70;;;;;;;22.55;50.96;100647.07;123780;1099;104656;-72
2024/04/06 09:35:36;;;;;;;4.10;1.92;;;;;;;22.50;50.91;100646.25;123131;1099;104325;-73
2024/04/06 09:38:10;;;;;;;4.57;1.80;;;;;;;22.53;50.51;100639.95;123429;1099;104616;-73
2024/04/06 09:40:42;;;;;;;3.17;1.83;;;;;;;22.54;50.67;100645.29;123366;1098;104245;-72
2024/04/06 09:43:12;;;;;;;4.30;2.10;;;;;;;22.52;49.17;100651.58;123391;1098;105368;-72
2024/04/06 09:45:43;;;;;;;6.03;2.90;;;;;;;22.54;49.50;100647.97;123510;1099;104389;-71
2024/04/06 09:48:14;;;;;;;1.80;1.63;;;;;;;22.57;48.56;100645.25;123547;1099;104294;-72
2024/04/06 09:50:48;;;;;;;3.97;2.00;;;;;;;22.60;49.03;100644.34;123632;1098;104268;-72
2024/04/06 09:53:19;;;;;;;3.20;1.73;;;;;;;22.64;48.87;100635.39;123222;1099;104325;-72
2024/04/06 09:55:52;;;;;;;9.27;3.87;;;;;;;22.66;48.12;100627.32;123050;1099;104348;-73
2024/04/06 09:58:29;;;;;;;4.90;2.45;;;;;;;22.73;47.96;100629.03;123130;1098;104358;-73
2024/04/06 10:01:36;;;;;;;4.10;2.00;;;;;;;22.78;46.28;100625.41;123115;1102;104274;-71
2024/04/06 10:04:25;;;;;;;4.83;2.30;;;;;;;22.80;46.93;100626.26;123307;1099;104293;-72
2024/04/06 10:06:56;;;;;;;2.80;1.90;;;;;;;22.94;47.30;100628.75;123553;1099;104320;-72
2024/04/06 10:09:33;;;;;;;3.30;1.90;;;;;;;23.10;46.66;100628.58;123563;1099;104270;-72
2024/04/06 10:12:08;;;;;;;2.57;1.30;;;;;;;23.23;46.76;100618.58;123412;1099;104248;-72
2024/04/06 10:14:48;;;;;;;1.97;1.43;;;;;;;23.26;46.15;100616.73;123161;1099;111363;-71
2024/04/06 10:17:18;;;;;;;3.75;1.70;;;;;;;23.31;45.72;100622.02;123427;1099;104242;-71
2024/04/06 10:19:49;;;;;;;4.70;1.23;;;;;;;23.32;45.64;100616.64;123086;1099;104304;-71
2024/04/06 10:22:26;;;;;;;4.77;1.60;;;;;;;23.31;45.37;100612.22;123414;1099;104368;-71
2024/04/06 10:25:03;;;;;;;3.90;1.30;;;;;;;23.29;44.36;100605.98;123471;1099;104408;-71
2024/04/06 10:27:40;;;;;;;3.40;1.83;;;;;;;23.25;44.43;100604.27;123427;1099;104300;-73
2024/04/06 10:30:11;;;;;;;2.53;1.80;;;;;;;23.23;44.75;100598.03;123491;1099;104267;-72
2024/04/06 10:32:41;;;;;;;5.90;1.90;;;;;;;23.23;44.29;100603.39;123419;1099;104197;-71
2024/04/06 10:35:12;;;;;;;2.50;1.37;;;;;;;23.22;43.88;100604.32;123431;1099;104366;-72
2024/04/06 10:37:43;;;;;;;2.27;1.53;;;;;;;23.14;43.46;100599.08;123079;1099;104374;-71
2024/04/06 10:40:14;;;;;;;3.60;1.90;;;;;;;23.06;43.57;100592.92;123366;1099;104249;-72
2024/04/06 10:42:44;;;;;;;3.77;1.83;;;;;;;23.03;43.31;100586.72;123225;1099;104290;-72
2024/04/06 10:45:16;;;;;;;3.70;1.80;;;;;;;22.96;43.09;100578.77;123141;1098;119387;-72
2024/04/06 10:47:47;;;;;;;5.10;1.93;;;;;;;22.89;43.00;100582.46;123139;1098;104278;-73
2024/04/06 10:50:17;;;;;;;3.97;2.00;;;;;;;22.84;43.01;100578.06;123126;1099;104623;-72
2024/04/06 10:52:48;;;;;;;3.20;2.03;;;;;;;22.76;42.67;100578.17;123103;1099;104223;-71
2024/04/06 10:55:21;;;;;;;3.00;1.80;;;;;;;22.73;42.74;100575.53;123346;1098;104274;-73
2024/04/06 10:57:51;;;;;;;2.55;1.80;;;;;;;22.71;42.06;100577.35;123167;1099;104289;-71
2024/04/06 11:00:22;;;;;;;3.57;1.60;;;;;;;22.58;41.59;100572.16;123342;1099;104524;-72
2024/04/06 11:02:52;;;;;;;3.57;1.67;;;;;;;22.53;42.20;100563.33;123708;1099;104325;-71
2024/04/06 11:05:23;;;;;;;3.10;1.80;;;;;;;22.46;41.85;100558.07;123236;1099;104342;-71
2024/04/06 11:07:53;;;;;;;3.10;1.90;;;;;;;22.41;42.18;100552.78;123349;1099;104737;-71
2024/04/06 11:10:24;;;;;;;3.80;1.87;;;;;;;22.36;41.72;100554.59;123235;1099;104302;-71
2024/04/06 11:12:57;;;;;;;5.47;1.80;;;;;;;22.37;41.43;100554.58;123164;1099;104533;-71
2024/04/06 11:15:28;;;;;;;2.23;1.73;;;;;;;22.40;41.79;100541.17;123395;1099;104294;-72
2024/04/06 11:17:59;;;;;;;2.40;1.57;;;;;;;22.40;41.36;100542.98;123411;1099;104248;-71
2024/04/06 11:20:33;;;;;;;4.07;1.73;;;;;;;22.39;41.29;100536.76;123447;1099;104265;-72
2024/04/06 11:23:04;;;;;;;2.10;1.60;;;;;;;22.43;41.42;100540.27;123466;1099;104405;-72
2024/04/06 11:25:39;;;;;;;3.30;1.43;;;;;;;22.47;41.63;100533.98;123145;1099;104431;-71